Time;durP1;ratioP1;P1;durP2;ratioP2;P2;SDS_P1;SDS_P2;PMS_P1;PMS_P2;Temp;Humidity;BMP_temperature;BMP_pressure;BME280_temperature;BME280_humidity;BME280_pressure;Samples;Min_cycle;Max_cycle;Signal;HPM_P1;HPM_P2
2022/01/05 00:03:51;;;;;;;1.73;0.95;;;;;;;19.40;51.93;95065.94;12631467;23;20018;-49
2022/01/05 00:09:11;;;;;;;2.25;0.93;;;;;;;19.38;51.93;95060.88;12631116;23;20112;-49
2022/01/05 00:14:30;;;;;;;1.40;0.90;;;;;;;19.38;51.85;95038.50;12611389;23;20026;-48
2022/01/05 00:19:50;;;;;;;1.55;0.80;;;;;;;19.35;51.77;95069.72;12610675;23;20019;-49
2022/01/05 00:25:09;;;;;;;0.90;0.63;;;;;;;19.35;52.01;95086.69;12611134;23;20018;-48
2022/01/05 00:30:29;;;;;;;1.25;0.70;;;;;;;19.33;51.84;95062.00;12630472;23;20014;-48
2022/01/05 00:35:48;;;;;;;1.75;0.80;;;;;;;19.33;51.73;95083.59;12611343;23;20065;-48
2022/01/05 00:41:08;;;;;;;0.70;0.70;;;;;;;19.32;51.86;95070.44;12630620;23;20022;-48
2022/01/05 00:46:27;;;;;;;1.45;0.70;;;;;;;19.31;51.80;95068.91;12610990;23;20391;-49
2022/01/05 00:51:47;;;;;;;1.30;0.88;;;;;;;19.30;51.74;95084.31;12610937;23;20024;-48
2022/01/05 00:57:07;;;;;;;1.23;0.80;;;;;;;19.28;51.69;95070.38;12630587;23;20468;-48
2022/01/05 01:02:28;;;;;;;1.50;0.93;;;;;;;19.27;51.73;95068.84;12610761;23;20026;-48
2022/01/05 01:07:47;;;;;;;1.65;0.82;;;;;;;19.27;51.76;95074.25;12610171;23;20025;-50
2022/01/05 01:13:07;;;;;;;1.23;0.73;;;;;;;19.27;51.71;95046.47;12610200;23;20018;-49
2022/01/05 01:18:27;;;;;;;1.13;0.75;;;;;;;19.25;51.76;95033.34;12609947;23;20030;-48
2022/01/05 01:24:04;;;;;;;0.95;0.70;;;;;;;19.24;51.54;95039.09;12630017;23;20018;-48
2022/01/05 01:29:24;;;;;;;0.75;0.60;;;;;;;19.22;51.65;95023.25;12629974;23;20014;-48
2022/01/05 01:34:43;;;;;;;1.35;0.80;;;;;;;19.22;51.64;95030.59;12610449;23;20025;-49
2022/01/05 01:40:04;;;;;;;0.95;0.57;;;;;;;19.21;51.61;95037.13;12610560;23;20015;-48
2022/01/05 01:45:24;;;;;;;0.95;0.70;;;;;;;19.20;51.62;95035.56;12610151;23;20026;-49
2022/01/05 01:50:44;;;;;;;0.82;0.70;;;;;;;19.19;51.59;95051.00;12610133;23;20094;-48
2022/01/05 01:56:04;;;;;;;0.80;0.70;;;;;;;19.17;51.49;95045.94;12629203;23;20018;-48
2022/01/05 02:01:24;;;;;;;0.85;0.70;;;;;;;19.15;51.40;95061.75;12610419;23;20019;-49
2022/01/05 02:06:43;;;;;;;0.70;0.70;;;;;;;19.16;51.48;95073.31;12629472;23;20024;-48
2022/01/05 02:12:05;;;;;;;0.50;0.50;;;;;;;19.15;51.42;95066.34;12610034;23;20024;-49
2022/01/05 02:17:41;;;;;;;0.88;0.68;;;;;;;19.13;51.47;95074.81;12611208;23;20093;-49
2022/01/05 02:23:01;;;;;;;0.90;0.70;;;;;;;19.12;51.44;95070.53;12614174;23;20537;-48
2022/01/05 02:28:21;;;;;;;0.80;0.73;;;;;;;19.10;51.35;95070.13;12613513;23;20463;-48
2022/01/05 02:33:41;;;;;;;0.98;0.50;;;;;;;19.09;51.49;95076.69;12613887;23;20131;-48
2022/01/05 02:39:00;;;;;;;0.88;0.55;;;;;;;19.09;51.49;95079.38;12633016;23;20086;-48
2022/01/05 02:44:20;;;;;;;0.82;0.60;;;;;;;19.08;51.39;95087.84;12613495;23;20470;-48
2022/01/05 02:49:39;;;;;;;0.95;0.52;;;;;;;19.07;51.45;95076.28;12613539;23;20383;-48
2022/01/05 02:54:58;;;;;;;0.50;0.50;;;;;;;19.07;51.38;95070.06;12613407;23;20030;-48
2022/01/05 03:00:18;;;;;;;0.75;0.60;;;;;;;19.05;51.24;95061.56;12610881;23;20482;-49
2022/01/05 03:05:38;;;;;;;0.75;0.70;;;;;;;19.05;51.24;95051.56;12612197;23;20077;-49
2022/01/05 03:10:59;;;;;;;0.93;0.65;;;;;;;19.03;51.38;95070.00;12632354;23;20022;-48
2022/01/05 03:16:19;;;;;;;1.10;0.68;;;;;;;19.03;51.47;95058.44;12612716;23;20022;-48
2022/01/05 03:21:39;;;;;;;1.00;0.60;;;;;;;19.01;51.32;95072.28;12612736;23;20601;-49
2022/01/05 03:26:58;;;;;;;1.15;0.65;;;;;;;19.01;51.25;95053.41;12612636;23;20383;-48
2022/01/05 03:32:18;;;;;;;0.80;0.68;;;;;;;19.01;51.21;95049.94;12631659;23;20014;-50
2022/01/05 03:37:37;;;;;;;0.63;0.63;;;;;;;18.99;51.33;95053.00;12612350;23;20343;-49
2022/01/05 03:42:57;;;;;;;0.82;0.60;;;;;;;18.97;51.22;95055.28;12631892;23;20447;-48
2022/01/05 03:48:18;;;;;;;0.60;0.60;;;;;;;18.97;51.26;95055.28;12612148;23;20022;-48
2022/01/05 03:53:37;;;;;;;0.63;0.50;;;;;;;18.95;51.33;95068.34;12611928;23;20018;-48
2022/01/05 03:58:56;;;;;;;0.68;0.60;;;;;;;18.94;51.32;95064.88;12631253;23;20028;-48
2022/01/05 04:04:16;;;;;;;0.50;0.40;;;;;;;18.93;51.24;95084.94;12612093;23;20651;-48
2022/01/05 04:09:35;;;;;;;1.42;0.60;;;;;;;18.92;51.12;95080.66;12611626;23;20014;-48
2022/01/05 04:14:55;;;;;;;1.15;0.50;;;;;;;18.91;51.41;95084.47;12631115;23;20018;-48
2022/01/05 04:20:15;;;;;;;0.50;0.50;;;;;;;18.92;51.23;95075.25;12611490;23;20015;-49
2022/01/05 04:25:35;;;;;;;1.02;0.60;;;;;;;18.89;51.11;95075.97;12611409;23;20057;-48
2022/01/05 04:30:54;;;;;;;0.43;0.43;;;;;;;18.89;51.17;95088.69;12611321;23;20018;-48
2022/01/05 04:36:14;;;;;;;0.47;0.43;;;;;;;18.89;51.12;95075.19;12610615;23;20028;-48
2022/01/05 04:41:33;;;;;;;0.63;0.43;;;;;;;18.88;51.03;95062.88;12630538;23;20024;-48
2022/01/05 04:46:52;;;;;;;0.90;0.50;;;;;;;18.86;51.00;95065.16;12611029;23;20024;-49
2022/01/05 04:52:11;;;;;;;0.60;0.57;;;;;;;18.87;50.96;95066.69;12630387;23;20022;-48
2022/01/05 04:57:31;;;;;;;0.50;0.50;;;;;;;18.83;51.04;95050.44;12610189;23;20073;-48
2022/01/05 05:02:50;;;;;;;0.50;0.50;;;;;;;18.83;50.98;95060.47;12610815;23;20655;-48
2022/01/05 05:08:09;;;;;;;0.50;0.50;;;;;;;18.83;51.02;95065.84;12609826;23;20015;-48
2022/01/05 05:13:29;;;;;;;0.90;0.80;;;;;;;18.81;51.24;95068.91;12610058;23;20458;-49
2022/01/05 05:18:48;;;;;;;0.98;0.77;;;;;;;18.81;51.91;95063.50;12609349;23;20025;-49
2022/01/05 05:24:10;;;;;;;0.50;0.50;;;;;;;18.82;51.86;95064.28;12629597;23;20066;-49
2022/01/05 05:29:29;;;;;;;0.43;0.40;;;;;;;18.83;51.96;95068.56;12609664;23;20015;-49
2022/01/05 05:34:49;;;;;;;2.00;0.60;;;;;;;18.84;52.36;95067.44;12608914;23;20111;-48
2022/01/05 05:40:09;;;;;;;0.77;0.60;;;;;;;18.85;52.14;95055.47;12609251;23;20015;-49
2022/01/05 05:45:29;;;;;;;0.50;0.40;;;;;;;18.87;52.01;95061.28;12610050;23;20052;-48
2022/01/05 05:50:49;;;;;;;0.60;0.50;;;;;;;18.89;52.35;95059.78;12608224;23;20022;-47
2022/01/05 05:56:09;;;;;;;0.85;0.50;;;;;;;18.93;52.47;95065.25;12606023;23;20018;-49
2022/01/05 06:01:29;;;;;;;0.40;0.40;;;;;;;18.94;52.53;95067.59;12608025;23;20018;-48
2022/01/05 06:06:48;;;;;;;2.38;0.50;;;;;;;18.97;52.62;95071.47;12610400;23;20069;-48
2022/01/05 06:12:08;;;;;;;1.83;0.65;;;;;;;18.99;52.62;95077.28;12609334;23;20019;-48
2022/01/05 06:17:28;;;;;;;1.67;0.50;;;;;;;19.02;52.68;95073.88;12628610;23;20018;-48
2022/01/05 06:22:47;;;;;;;13.25;3.42;;;;;;;19.06;52.41;95071.22;12605273;23;20045;-49
2022/01/05 06:28:11;;;;;;;21.00;4.68;;;;;;;19.09;52.37;95083.97;12623097;23;20014;-49
2022/01/05 06:33:30;;;;;;;16.88;4.05;;;;;;;19.12;51.96;95081.34;12602621;23;20019;-48
2022/01/05 06:38:49;;;;;;;18.73;3.60;;;;;;;19.16;51.87;95090.28;12602777;23;20025;-49
2022/01/05 06:44:09;;;;;;;17.48;4.00;;;;;;;19.20;51.56;95086.84;12600700;23;20077;-50
2022/01/05 06:49:28;;;;;;;11.32;3.30;;;;;;;19.23;51.47;95097.72;12604955;23;20018;-48
2022/01/05 06:54:47;;;;;;;13.55;3.33;;;;;;;19.27;51.30;95103.19;12625492;23;20085;-48
2022/01/05 07:00:11;;;;;;;11.35;3.03;;;;;;;19.30;51.13;95107.84;12608143;23;20014;-48
2022/01/05 07:05:31;;;;;;;9.95;2.80;;;;;;;19.30;50.81;95107.84;12609215;23;20413;-49
2022/01/05 07:10:50;;;;;;;11.25;3.35;;;;;;;19.33;50.55;95126.03;12612339;23;20355;-49
2022/01/05 07:16:10;;;;;;;8.07;2.38;;;;;;;19.35;50.48;95129.13;12612095;23;20049;-49
2022/01/05 07:21:33;;;;;;;7.82;2.58;;;;;;;19.40;50.16;95133.44;12612139;23;20014;-48
2022/01/05 07:26:52;;;;;;;9.95;2.70;;;;;;;19.39;49.84;95135.38;12612115;23;20379;-50
2022/01/05 07:32:12;;;;;;;6.13;2.20;;;;;;;19.41;49.66;95130.38;12632095;23;20046;-48
2022/01/05 07:37:31;;;;;;;7.80;2.10;;;;;;;19.45;49.52;95127.72;12612099;23;20022;-49
2022/01/05 07:42:51;;;;;;;6.18;2.10;;;;;;;19.47;49.45;95125.44;12611624;23;20026;-48
2022/01/05 07:48:10;;;;;;;5.40;2.05;;;;;;;19.49;49.11;95107.72;12611975;23;20069;-48
2022/01/05 07:53:30;;;;;;;5.72;2.05;;;;;;;19.51;48.95;95108.16;12611567;23;20042;-49
2022/01/05 07:58:50;;;;;;;4.95;1.80;;;;;;;19.55;48.73;95105.50;12611655;23;20014;-49
2022/01/05 08:04:10;;;;;;;6.05;1.80;;;;;;;19.58;48.57;95096.66;12612276;23;20591;-48
2022/01/05 08:09:30;;;;;;;6.35;1.98;;;;;;;19.60;48.55;95102.50;12611978;23;20338;-49
2022/01/05 08:14:49;;;;;;;4.38;1.77;;;;;;;19.63;48.19;95101.75;12610650;23;20022;-49
2022/01/05 08:20:11;;;;;;;4.65;1.80;;;;;;;19.67;47.99;95107.19;12630613;23;20022;-49
2022/01/05 08:25:30;;;;;;;3.63;1.65;;;;;;;19.71;47.84;95130.44;12611413;23;20319;-49
2022/01/05 08:30:50;;;;;;;5.22;1.80;;;;;;;19.72;47.65;95118.50;12611435;23;20019;-48
2022/01/05 08:36:09;;;;;;;4.20;1.70;;;;;;;19.76;47.54;95129.34;12610864;23;20019;-48
2022/01/05 08:41:28;;;;;;;3.78;1.35;;;;;;;19.81;47.33;95133.66;12611164;23;20014;-49
2022/01/05 08:46:48;;;;;;;3.67;1.60;;;;;;;19.83;47.00;95126.72;12609820;23;20018;-48
2022/01/05 08:52:07;;;;;;;5.18;1.60;;;;;;;19.87;47.01;95141.06;12630538;23;20041;-49
2022/01/05 08:57:27;;;;;;;3.17;1.35;;;;;;;19.91;46.93;95141.88;12630664;23;20093;-48
2022/01/05 09:02:46;;;;;;;2.30;1.27;;;;;;;19.94;46.68;95159.31;12610711;23;20018;-48
2022/01/05 09:08:05;;;;;;;3.13;1.48;;;;;;;19.97;46.67;95136.94;12609448;23;20026;-49
2022/01/05 09:13:25;;;;;;;3.13;1.40;;;;;;;20.01;46.53;95162.09;12610638;23;20041;-48
2022/01/05 09:18:44;;;;;;;2.83;1.05;;;;;;;20.05;46.32;95148.63;12609612;23;20358;-48
2022/01/05 09:24:05;;;;;;;2.97;1.30;;;;;;;20.09;46.26;95144.03;12610287;23;20076;-48
2022/01/05 09:29:24;;;;;;;2.58;1.30;;;;;;;20.11;46.02;95137.16;12610092;23;20019;-49
2022/01/05 09:34:44;;;;;;;2.65;1.38;;;;;;;20.15;45.98;95164.22;12609627;23;20037;-49
2022/01/05 09:45:52;;;;;;;1.77;1.10;;;;;;;20.22;45.63;95174.34;12608301;23;20022;-48
2022/01/05 09:51:13;;;;;;;1.35;0.93;;;;;;;20.24;45.50;95172.81;12587388;23;20018;-48
2022/01/05 09:56:34;;;;;;;2.80;1.13;;;;;;;20.26;45.40;95159.72;12587994;23;20018;-49
2022/01/05 10:01:56;;;;;;;2.08;1.05;;;;;;;20.29;45.43;95158.22;12610261;23;20018;-49
2022/01/05 10:07:16;;;;;;;1.85;1.00;;;;;;;20.30;45.40;95171.34;12610124;23;20018;-49
2022/01/05 10:12:36;;;;;;;2.10;1.20;;;;;;;20.34;45.35;95201.91;12610104;23;20506;-50
2022/01/05 10:18:12;;;;;;;2.95;1.00;;;;;;;20.35;44.99;95260.28;12609384;23;20019;-49
2022/01/05 10:23:41;;;;;;;1.67;0.93;;;;;;;20.38;45.20;95282.31;12628129;23;20478;-49
2022/01/05 10:29:06;;;;;;;2.10;0.80;;;;;;;20.41;45.00;95305.94;12624860;23;20030;-49
2022/01/05 10:34:28;;;;;;;2.28;1.00;;;;;;;20.43;44.88;95314.47;12609054;23;20022;-48
2022/01/05 10:39:48;;;;;;;2.08;1.08;;;;;;;20.45;44.59;95301.38;12609886;23;20030;-50
2022/01/05 10:45:11;;;;;;;2.17;1.05;;;;;;;20.47;44.50;95307.19;12633231;23;20439;-48
2022/01/05 10:50:31;;;;;;;1.27;0.90;;;;;;;20.51;44.32;95341.25;12612188;23;20041;-49
2022/01/05 10:55:51;;;;;;;2.17;1.30;;;;;;;20.54;44.12;95348.66;12631743;23;20046;-49
2022/01/05 11:01:26;;;;;;;1.10;0.70;;;;;;;20.56;43.88;95350.97;12632096;23;20238;-48
2022/01/05 11:06:57;;;;;;;1.85;1.00;;;;;;;20.59;43.77;95368.41;12611712;23;20026;-49
2022/01/05 11:12:17;;;;;;;1.80;1.13;;;;;;;20.61;43.75;95377.75;12612157;23;20023;-48
2022/01/05 11:17:36;;;;;;;1.05;0.57;;;;;;;20.64;43.62;95409.50;12610055;23;20383;-48
2022/01/05 11:22:56;;;;;;;1.92;0.90;;;;;;;20.67;43.56;95395.22;12609905;23;20022;-49
2022/01/05 11:28:18;;;;;;;1.13;1.00;;;;;;;20.70;43.38;95378.25;12632199;23;20038;-48
2022/01/05 11:33:38;;;;;;;0.90;0.70;;;;;;;20.73;43.29;95388.34;12612434;23;20320;-49
2022/01/05 11:38:58;;;;;;;1.17;0.80;;;;;;;20.76;43.11;95416.63;12612109;23;20026;-49
2022/01/05 11:44:18;;;;;;;0.80;0.70;;;;;;;20.78;43.16;95417.03;12612561;23;20018;-50
2022/01/05 11:49:38;;;;;;;1.88;0.80;;;;;;;20.80;43.01;95386.91;12612146;23;20018;-49
2022/01/05 11:55:04;;;;;;;0.73;0.60;;;;;;;20.82;42.87;95385.38;12611766;23;20022;-48
2022/01/05 12:00:24;;;;;;;0.77;0.68;;;;;;;20.84;42.83;95401.25;12611282;23;20019;-49
2022/01/05 12:06:06;;;;;;;1.13;0.70;;;;;;;20.85;42.57;95416.34;12631666;23;20018;-49
2022/01/05 12:11:44;;;;;;;0.55;0.55;;;;;;;20.85;42.46;95422.53;12611416;23;20757;-48
2022/01/05 12:17:14;;;;;;;0.93;0.68;;;;;;;20.88;42.44;95427.22;12610983;23;20030;-49
2022/01/05 12:22:34;;;;;;;1.48;0.68;;;;;;;20.87;42.57;95425.66;12630395;23;20018;-48
2022/01/05 12:27:58;;;;;;;1.23;0.70;;;;;;;20.87;42.53;95414.81;12630731;23;20477;-48
2022/01/05 12:33:19;;;;;;;0.82;0.73;;;;;;;20.88;42.44;95426.44;12610865;23;20085;-48
2022/01/05 12:38:58;;;;;;;0.88;0.70;;;;;;;20.88;42.17;95413.69;12610057;23;20034;-49
2022/01/05 12:44:18;;;;;;;2.17;0.80;;;;;;;20.88;42.46;95442.69;12610401;23;20085;-48
2022/01/05 12:49:39;;;;;;;1.92;0.80;;;;;;;20.88;42.37;95432.63;12628633;23;20018;-48
2022/01/05 12:55:03;;;;;;;0.93;0.70;;;;;;;20.88;41.59;95443.47;12630289;23;20041;-48
2022/01/05 13:00:22;;;;;;;1.25;0.60;;;;;;;20.90;41.80;95453.94;12610844;23;20141;-49
2022/01/05 13:05:43;;;;;;;0.98;0.80;;;;;;;20.88;42.11;95456.22;12609804;23;20041;-49
2022/01/05 13:11:03;;;;;;;1.55;0.70;;;;;;;20.87;42.14;95466.25;12587333;23;20025;-49
2022/01/05 13:16:27;;;;;;;1.65;0.73;;;;;;;20.86;42.11;95467.41;12629698;23;20037;-48
2022/01/05 13:21:47;;;;;;;1.77;0.60;;;;;;;20.86;42.16;95466.63;12606066;23;20041;-49
2022/01/05 13:27:08;;;;;;;1.08;0.73;;;;;;;20.87;42.06;95468.19;12609206;23;20026;-49
2022/01/05 13:32:29;;;;;;;1.67;0.70;;;;;;;20.85;42.10;95465.84;12610231;23;20324;-49
2022/01/05 13:37:57;;;;;;;0.88;0.82;;;;;;;20.85;41.98;95475.88;12628223;23;20489;-49
2022/01/05 13:43:17;;;;;;;1.67;0.83;;;;;;;20.83;42.01;95470.06;12610251;23;20029;-49
2022/01/05 13:48:38;;;;;;;2.10;0.80;;;;;;;20.82;41.84;95476.63;12609875;23;20510;-49
2022/01/05 13:53:59;;;;;;;2.03;0.80;;;;;;;20.81;41.69;95480.47;12609641;23;20081;-49
2022/01/05 13:59:19;;;;;;;1.00;0.65;;;;;;;20.78;41.54;95516.38;12607685;23;20081;-49
2022/01/05 14:04:56;;;;;;;1.10;0.70;;;;;;;20.77;41.28;95518.31;12627911;23;20021;-48
2022/01/05 14:10:16;;;;;;;1.45;0.73;;;;;;;20.77;41.35;95523.72;12606251;23;20065;-49
2022/01/05 14:15:36;;;;;;;1.30;0.80;;;;;;;20.76;41.08;95513.25;12609852;23;20022;-49
2022/01/05 14:20:56;;;;;;;0.90;0.75;;;;;;;20.74;41.07;95527.16;12614131;23;20018;-49
2022/01/05 14:26:23;;;;;;;1.02;0.80;;;;;;;20.72;41.03;95538.34;12613940;23;20018;-49
2022/01/05 14:31:44;;;;;;;0.85;0.70;;;;;;;20.73;41.00;95549.94;12613545;23;20676;-49
2022/01/05 14:37:06;;;;;;;0.93;0.70;;;;;;;20.72;40.89;95548.41;12631085;23;20093;-51
2022/01/05 14:42:26;;;;;;;0.60;0.57;;;;;;;20.71;40.69;95553.00;12609705;23;20019;-51
2022/01/05 14:47:45;;;;;;;1.42;0.90;;;;;;;20.69;40.73;95555.28;12611749;23;20015;-48
2022/01/05 14:53:05;;;;;;;1.17;0.70;;;;;;;20.67;40.63;95554.88;12612356;23;20552;-49
2022/01/05 14:58:25;;;;;;;1.08;0.95;;;;;;;20.65;40.53;95576.09;12613464;23;20018;-48
2022/01/05 15:03:44;;;;;;;1.60;0.70;;;;;;;20.64;40.41;95579.16;12613068;23;20025;-51
2022/01/05 15:09:05;;;;;;;1.10;0.77;;;;;;;20.63;40.39;95602.75;12632548;23;20018;-49
2022/01/05 15:14:25;;;;;;;1.20;0.60;;;;;;;20.60;40.31;95606.19;12591558;23;20338;-48
2022/01/05 15:19:45;;;;;;;1.00;0.80;;;;;;;20.58;40.14;95613.84;12631728;23;20022;-50
2022/01/05 15:25:06;;;;;;;1.17;0.90;;;;;;;20.58;40.11;95632.00;12631117;23;20463;-51
2022/01/05 15:30:25;;;;;;;0.95;0.85;;;;;;;20.56;40.02;95643.16;12611057;23;20018;-52
2022/01/05 15:35:46;;;;;;;1.17;0.82;;;;;;;20.52;39.96;95643.13;12631215;23;20076;-51
2022/01/05 15:41:07;;;;;;;1.48;0.80;;;;;;;20.52;39.72;95661.25;12611830;23;20628;-51
2022/01/05 15:46:26;;;;;;;0.73;0.73;;;;;;;20.50;39.58;95658.94;12611313;23;20018;-52
2022/01/05 15:51:46;;;;;;;0.90;0.70;;;;;;;20.48;39.58;95652.28;12630413;23;20057;-52
2022/01/05 15:57:15;;;;;;;0.80;0.60;;;;;;;20.47;39.36;95651.50;12610367;23;20078;-51
2022/01/05 16:02:34;;;;;;;2.25;0.90;;;;;;;20.44;39.41;95646.03;12611236;23;20025;-51
2022/01/05 16:07:54;;;;;;;1.10;0.80;;;;;;;20.43;39.37;95655.31;12610944;23;20041;-51
2022/01/05 16:13:15;;;;;;;1.55;0.80;;;;;;;20.40;39.26;95651.38;12609090;23;20018;-51
2022/01/05 16:18:35;;;;;;;1.35;0.80;;;;;;;20.37;39.28;95652.09;12610059;23;20399;-51
2022/01/05 16:23:54;;;;;;;1.50;0.80;;;;;;;20.37;39.29;95662.91;12630016;23;20014;-51
2022/01/05 16:29:14;;;;;;;1.27;0.88;;;;;;;20.35;39.23;95674.09;12610485;23;20022;-51
2022/01/05 16:34:33;;;;;;;0.98;0.68;;;;;;;20.34;39.05;95671.72;12608922;23;20029;-51
2022/01/05 16:39:53;;;;;;;1.30;0.90;;;;;;;20.32;39.24;95665.91;12609462;23;20023;-51
2022/01/05 16:45:12;;;;;;;1.60;0.85;;;;;;;20.31;39.12;95673.25;12611073;23;20095;-52
2022/01/05 16:50:32;;;;;;;1.13;0.80;;;;;;;20.30;39.02;95677.06;12610750;23;20018;-53
2022/01/05 16:55:53;;;;;;;1.73;1.02;;;;;;;20.30;38.93;95660.06;12610250;23;20458;-51
2022/01/05 17:01:13;;;;;;;1.42;0.88;;;;;;;20.30;38.83;95685.19;12610056;23;20021;-51
2022/01/05 17:06:32;;;;;;;2.35;0.80;;;;;;;20.30;38.65;95690.59;12609828;23;20065;-51
2022/01/05 17:11:52;;;;;;;1.55;0.90;;;;;;;20.30;38.68;95701.41;12609704;23;20073;-52
2022/01/05 17:17:15;;;;;;;1.80;0.98;;;;;;;20.31;38.47;95697.59;12628670;23;20015;-51
2022/01/05 17:22:35;;;;;;;1.23;0.90;;;;;;;20.32;38.41;95696.44;12609430;23;20018;-51
2022/01/05 17:27:55;;;;;;;1.23;1.00;;;;;;;20.33;38.16;95706.13;12629140;23;20025;-53
2022/01/05 17:33:15;;;;;;;1.92;1.00;;;;;;;20.35;37.47;95719.28;12608681;23;20025;-51
2022/01/05 17:38:36;;;;;;;1.45;0.88;;;;;;;20.23;35.54;95708.59;12623276;23;20022;-51
2022/01/05 17:43:55;;;;;;;5.28;1.10;;;;;;;20.28;37.11;95721.84;12609212;23;20022;-51
2022/01/05 17:49:17;;;;;;;3.67;1.10;;;;;;;20.34;37.93;95736.66;12627778;23;20014;-51
2022/01/05 17:54:36;;;;;;;2.05;1.00;;;;;;;20.38;38.46;95734.78;12609353;23;20089;-51
2022/01/05 17:59:56;;;;;;;6.82;3.72;;;;;;;20.42;39.37;95743.78;12609479;23;20438;-51
2022/01/05 18:05:16;;;;;;;6.70;3.10;;;;;;;20.48;40.38;95749.69;12608694;23;20024;-53
2022/01/05 18:10:36;;;;;;;6.57;2.50;;;;;;;20.51;41.02;95741.66;12628409;23;20101;-51
2022/01/05 18:16:03;;;;;;;6.75;2.63;;;;;;;20.55;41.38;95753.31;12628472;23;20018;-50
2022/01/05 18:21:24;;;;;;;9.02;2.30;;;;;;;20.58;41.95;95754.56;12608866;23;20807;-50
2022/01/05 18:26:43;;;;;;;6.97;2.17;;;;;;;20.62;42.32;95763.56;12608827;23;20018;-48
2022/01/05 18:32:03;;;;;;;4.68;1.80;;;;;;;20.66;42.54;95766.31;12607848;23;20015;-50
2022/01/05 18:37:22;;;;;;;4.50;1.73;;;;;;;20.71;42.28;95788.47;12606926;23;20031;-51
2022/01/05 18:42:42;;;;;;;4.32;1.88;;;;;;;20.73;42.33;95797.00;12606778;23;20022;-53
2022/01/05 18:48:02;;;;;;;5.82;1.60;;;;;;;20.77;42.38;95799.00;12608221;23;20533;-52
2022/01/05 18:53:22;;;;;;;3.45;1.40;;;;;;;20.80;42.49;95793.69;12627171;23;20442;-50
2022/01/05 18:58:42;;;;;;;5.07;1.42;;;;;;;20.85;42.53;95798.78;12608582;23;20025;-51
2022/01/05 19:04:01;;;;;;;4.05;1.20;;;;;;;20.90;42.57;95797.72;12610597;23;20018;-53
2022/01/05 19:09:24;;;;;;;2.22;1.42;;;;;;;20.94;42.68;95798.59;12610238;23;20018;-51
2022/01/05 19:14:43;;;;;;;3.22;1.20;;;;;;;20.97;42.65;95803.28;12611961;23;20119;-48
2022/01/05 19:20:03;;;;;;;3.25;1.20;;;;;;;21.00;42.77;95816.09;12610902;23;20471;-47
2022/01/05 19:25:23;;;;;;;2.33;1.20;;;;;;;21.04;42.91;95797.22;12611103;23;20022;-48
2022/01/05 19:30:42;;;;;;;2.88;1.30;;;;;;;21.10;42.92;95801.19;12612120;23;20022;-48
2022/01/05 19:36:03;;;;;;;2.17;1.10;;;;;;;21.15;42.66;95809.06;12631624;23;20028;-48
2022/01/05 19:41:22;;;;;;;2.10;1.20;;;;;;;21.18;42.70;95829.22;12631490;23;20029;-49
2022/01/05 19:46:42;;;;;;;2.45;1.20;;;;;;;21.18;42.70;95829.22;12610822;23;20110;-49
2022/01/05 19:52:08;;;;;;;3.15;1.00;;;;;;;21.24;42.68;95819.66;12609052;23;20014;-49
2022/01/05 19:57:27;;;;;;;3.13;1.02;;;;;;;21.24;42.92;95825.06;12610811;23;20512;-51
2022/01/05 20:02:46;;;;;;;7.75;1.40;;;;;;;21.24;42.92;95825.06;12609722;23;20159;-48
2022/01/05 20:08:07;;;;;;;4.70;1.45;;;;;;;21.27;43.39;95816.22;12608575;23;20064;-50
2022/01/05 20:13:26;;;;;;;2.75;1.35;;;;;;;21.28;43.46;95823.19;12606135;23;20022;-49
2022/01/05 20:18:45;;;;;;;4.22;1.65;;;;;;;21.28;43.46;95823.19;12609015;23;20018;-49
2022/01/05 20:24:05;;;;;;;7.28;1.50;;;;;;;21.31;43.87;95842.22;12610919;23;20082;-51
2022/01/05 20:29:25;;;;;;;4.57;1.67;;;;;;;21.32;44.04;95840.31;12609889;23;20014;-51
2022/01/05 20:34:45;;;;;;;3.88;1.25;;;;;;;21.32;44.26;95826.75;12610585;23;20018;-53
2022/01/05 20:40:07;;;;;;;3.88;1.27;;;;;;;21.35;44.25;95833.41;12609337;23;20015;-50
2022/01/05 20:45:27;;;;;;;4.05;1.40;;;;;;;21.35;44.42;95844.25;12587182;23;20022;-52
2022/01/05 20:50:48;;;;;;;4.30;1.20;;;;;;;21.34;44.39;95838.00;12609437;23;20842;-52
2022/01/05 20:56:08;;;;;;;2.80;1.40;;;;;;;21.35;44.60;95849.66;12609815;23;20154;-50
2022/01/05 21:01:29;;;;;;;2.15;1.00;;;;;;;21.34;44.63;95851.56;12610127;23;20081;-51
2022/01/05 21:06:48;;;;;;;3.20;1.27;;;;;;;21.34;44.54;95846.13;12607242;23;20101;-49
2022/01/05 21:12:08;;;;;;;1.58;0.88;;;;;;;21.35;44.60;95855.84;12605309;23;20024;-48
2022/01/05 21:17:39;;;;;;;2.35;1.02;;;;;;;21.35;44.77;95846.94;12608112;23;20403;-49
2022/01/05 21:22:59;;;;;;;2.00;1.15;;;;;;;21.35;44.77;95849.66;12627111;23;20093;-49
2022/01/05 21:28:18;;;;;;;2.42;1.10;;;;;;;21.35;44.73;95839.59;12606478;23;20501;-49
2022/01/05 21:33:37;;;;;;;2.20;1.10;;;;;;;21.35;44.54;95834.19;12607826;23;20018;-49
2022/01/05 21:38:57;;;;;;;3.33;1.33;;;;;;;21.34;44.61;95832.59;12607233;23;20014;-50
2022/01/05 21:44:17;;;;;;;1.65;0.90;;;;;;;21.32;44.63;95834.88;12607547;23;20025;-49
2022/01/05 21:49:37;;;;;;;2.75;1.30;;;;;;;21.32;44.77;95840.31;12624936;23;20443;-49
2022/01/05 21:54:57;;;;;;;3.15;1.40;;;;;;;21.32;44.55;95845.72;12605667;23;20018;-49
2022/01/05 22:00:19;;;;;;;3.83;1.58;;;;;;;21.31;44.77;95838.75;12627656;23;20029;-50
2022/01/05 22:05:38;;;;;;;6.53;1.73;;;;;;;21.31;45.12;95849.59;12606935;23;20019;-50
2022/01/05 22:10:58;;;;;;;5.38;1.63;;;;;;;21.29;45.13;95841.03;12606905;23;20041;-49
2022/01/05 22:16:17;;;;;;;4.45;1.65;;;;;;;21.27;45.19;95833.25;12626365;23;20015;-49
2022/01/05 22:21:37;;;;;;;5.00;1.55;;;;;;;21.28;45.14;95850.28;12627018;23;20451;-49
2022/01/05 22:26:57;;;;;;;5.03;1.65;;;;;;;21.27;45.46;95848.75;12607513;23;20023;-49
2022/01/05 22:32:17;;;;;;;6.75;2.05;;;;;;;21.25;45.42;95840.19;12626711;23;20020;-50
2022/01/05 22:37:37;;;;;;;8.23;2.50;;;;;;;21.25;45.91;95851.78;12629003;23;20022;-50
2022/01/05 22:42:57;;;;;;;6.90;2.35;;;;;;;21.25;45.92;95857.22;12631143;23;20018;-49
2022/01/05 22:48:16;;;;;;;5.88;2.20;;;;;;;21.24;45.94;95852.16;12612464;23;20418;-50
2022/01/05 22:53:36;;;;;;;5.15;2.03;;;;;;;21.22;46.06;95865.28;12613486;23;20029;-49
2022/01/05 22:58:55;;;;;;;7.30;2.00;;;;;;;21.22;46.07;95867.97;12633180;23;20458;-50
2022/01/05 23:04:14;;;;;;;4.45;1.90;;;;;;;21.19;46.01;95866.78;12613556;23;20303;-50
2022/01/05 23:09:36;;;;;;;3.30;1.77;;;;;;;21.17;46.10;95874.47;12613065;23;20054;-49
2022/01/05 23:14:56;;;;;;;5.40;1.98;;;;;;;21.17;46.15;95879.09;12633044;23;20037;-49
2022/01/05 23:20:17;;;;;;;4.63;1.90;;;;;;;21.13;46.14;95879.81;12632492;23;20022;-49
2022/01/05 23:25:37;;;;;;;3.38;1.30;;;;;;;21.14;46.11;95886.78;12632570;23;20024;-49
2022/01/05 23:30:57;;;;;;;3.00;1.17;;;;;;;21.12;46.15;95880.16;12612966;23;20382;-50
2022/01/05 23:36:17;;;;;;;4.57;1.55;;;;;;;21.10;46.17;95866.19;12632471;23;20018;-48
2022/01/05 23:41:36;;;;;;;3.88;1.60;;;;;;;21.09;46.14;95878.16;12632334;23;20022;-50
2022/01/05 23:46:56;;;;;;;3.08;1.40;;;;;;;21.06;46.03;95881.59;12611970;23;20095;-49
2022/01/05 23:52:15;;;;;;;3.30;1.30;;;;;;;21.05;46.13;95877.31;12612576;23;20349;-50
2022/01/05 23:57:35;;;;;;;2.65;1.20;;;;;;;21.04;46.14;95881.16;12631805;23;20022;-51
